sensor_id;sensor_type;location;lat;lon;timestamp;temperature;humidity
78704;SHT31;68034;51.966;5.676;2023-12-22T00:00:35;8.7;77.9
78704;SHT31;68034;51.966;5.676;2023-12-22T00:03:08;8.8;77.6
78704;SHT31;68034;51.966;5.676;2023-12-22T00:05:36;9.0;77.6
78704;SHT31;68034;51.966;5.676;2023-12-22T00:08:11;9.1;77.3
78704;SHT31;68034;51.966;5.676;2023-12-22T00:10:41;9.3;76.6
78704;SHT31;68034;51.966;5.676;2023-12-22T00:13:12;9.4;76.6
78704;SHT31;68034;51.966;5.676;2023-12-22T00:15:43;9.5;76.1
78704;SHT31;68034;51.966;5.676;2023-12-22T00:18:12;9.5;75.6
78704;SHT31;68034;51.966;5.676;2023-12-22T00:20:40;9.6;75.3
78704;SHT31;68034;51.966;5.676;2023-12-22T00:23:09;9.5;75.4
78704;SHT31;68034;51.966;5.676;2023-12-22T00:25:38;9.5;75.4
78704;SHT31;68034;51.966;5.676;2023-12-22T00:28:07;9.4;75.8
78704;SHT31;68034;51.966;5.676;2023-12-22T00:30:36;9.3;75.8
78704;SHT31;68034;51.966;5.676;2023-12-22T00:33:05;9.3;76.0
78704;SHT31;68034;51.966;5.676;2023-12-22T00:35:35;9.2;76.7
78704;SHT31;68034;51.966;5.676;2023-12-22T00:38:04;9.1;75.3
78704;SHT31;68034;51.966;5.676;2023-12-22T00:40:33;9.0;75.1
78704;SHT31;68034;51.966;5.676;2023-12-22T00:43:02;8.9;75.2
78704;SHT31;68034;51.966;5.676;2023-12-22T00:45:31;8.8;75.0
78704;SHT31;68034;51.966;5.676;2023-12-22T00:47:59;8.7;74.4
78704;SHT31;68034;51.966;5.676;2023-12-22T00:50:28;8.6;74.7
78704;SHT31;68034;51.966;5.676;2023-12-22T00:52:57;8.5;75.5
78704;SHT31;68034;51.966;5.676;2023-12-22T00:55:26;8.4;75.9
78704;SHT31;68034;51.966;5.676;2023-12-22T00:57:54;8.3;76.4
78704;SHT31;68034;51.966;5.676;2023-12-22T01:00:23;8.2;76.6
78704;SHT31;68034;51.966;5.676;2023-12-22T01:02:52;8.2;76.8
78704;SHT31;68034;51.966;5.676;2023-12-22T01:05:20;8.1;77.3
78704;SHT31;68034;51.966;5.676;2023-12-22T01:07:49;8.1;77.8
78704;SHT31;68034;51.966;5.676;2023-12-22T01:10:18;8.1;78.2
78704;SHT31;68034;51.966;5.676;2023-12-22T01:12:47;8.0;78.5
78704;SHT31;68034;51.966;5.676;2023-12-22T01:15:16;8.0;78.6
78704;SHT31;68034;51.966;5.676;2023-12-22T01:17:45;8.0;78.6
78704;SHT31;68034;51.966;5.676;2023-12-22T01:20:14;8.0;78.7
78704;SHT31;68034;51.966;5.676;2023-12-22T01:22:43;8.0;78.9
78704;SHT31;68034;51.966;5.676;2023-12-22T01:25:11;8.0;79.0
78704;SHT31;68034;51.966;5.676;2023-12-22T01:27:40;8.0;78.9
78704;SHT31;68034;51.966;5.676;2023-12-22T01:30:09;7.9;79.1
78704;SHT31;68034;51.966;5.676;2023-12-22T01:32:38;7.9;79.2
78704;SHT31;68034;51.966;5.676;2023-12-22T01:35:07;7.9;79.4
78704;SHT31;68034;51.966;5.676;2023-12-22T01:37:37;7.9;79.4
78704;SHT31;68034;51.966;5.676;2023-12-22T01:40:09;7.9;79.3
78704;SHT31;68034;51.966;5.676;2023-12-22T01:42:38;7.9;79.4
78704;SHT31;68034;51.966;5.676;2023-12-22T01:45:08;7.9;79.6
78704;SHT31;68034;51.966;5.676;2023-12-22T01:47:37;7.9;79.8
78704;SHT31;68034;51.966;5.676;2023-12-22T01:50:08;7.9;80.0
78704;SHT31;68034;51.966;5.676;2023-12-22T01:52:40;7.9;80.0
78704;SHT31;68034;51.966;5.676;2023-12-22T01:55:11;8.0;79.5
78704;SHT31;68034;51.966;5.676;2023-12-22T01:57:44;8.0;79.6
78704;SHT31;68034;51.966;5.676;2023-12-22T02:00:31;8.0;79.4
78704;SHT31;68034;51.966;5.676;2023-12-22T02:03:00;8.1;80.0
78704;SHT31;68034;51.966;5.676;2023-12-22T02:05:29;8.1;78.8
78704;SHT31;68034;51.966;5.676;2023-12-22T02:07:58;8.2;78.7
78704;SHT31;68034;51.966;5.676;2023-12-22T02:10:27;8.2;78.6
78704;SHT31;68034;51.966;5.676;2023-12-22T02:12:56;8.3;78.9
78704;SHT31;68034;51.966;5.676;2023-12-22T02:15:26;8.5;78.7
78704;SHT31;68034;51.966;5.676;2023-12-22T02:18:01;8.6;78.3
78704;SHT31;68034;51.966;5.676;2023-12-22T02:20:34;8.8;77.6
78704;SHT31;68034;51.966;5.676;2023-12-22T02:23:04;8.9;77.3
78704;SHT31;68034;51.966;5.676;2023-12-22T02:25:36;9.0;76.6
78704;SHT31;68034;51.966;5.676;2023-12-22T02:28:10;9.1;76.1
78704;SHT31;68034;51.966;5.676;2023-12-22T02:30:52;9.2;75.3
78704;SHT31;68034;51.966;5.676;2023-12-22T02:33:24;9.3;74.9
78704;SHT31;68034;51.966;5.676;2023-12-22T02:36:05;9.4;74.3
78704;SHT31;68034;51.966;5.676;2023-12-22T02:38:36;9.4;73.5
78704;SHT31;68034;51.966;5.676;2023-12-22T02:41:08;9.4;73.2
78704;SHT31;68034;51.966;5.676;2023-12-22T02:43:37;9.4;73.1
78704;SHT31;68034;51.966;5.676;2023-12-22T02:46:14;9.4;73.1
78704;SHT31;68034;51.966;5.676;2023-12-22T02:48:43;9.4;73.3
78704;SHT31;68034;51.966;5.676;2023-12-22T02:51:12;9.3;73.5
78704;SHT31;68034;51.966;5.676;2023-12-22T02:53:40;9.3;73.2
78704;SHT31;68034;51.966;5.676;2023-12-22T02:56:09;9.3;73.1
78704;SHT31;68034;51.966;5.676;2023-12-22T02:58:38;9.2;72.9
78704;SHT31;68034;51.966;5.676;2023-12-22T03:01:06;9.1;72.8
78704;SHT31;68034;51.966;5.676;2023-12-22T03:03:35;9.0;73.2
78704;SHT31;68034;51.966;5.676;2023-12-22T03:06:04;8.9;73.5
78704;SHT31;68034;51.966;5.676;2023-12-22T03:08:33;8.7;74.1
78704;SHT31;68034;51.966;5.676;2023-12-22T03:11:01;8.6;74.2
78704;SHT31;68034;51.966;5.676;2023-12-22T03:13:30;8.6;74.6
78704;SHT31;68034;51.966;5.676;2023-12-22T03:15:59;8.5;74.8
78704;SHT31;68034;51.966;5.676;2023-12-22T03:18:28;8.4;75.1
78704;SHT31;68034;51.966;5.676;2023-12-22T03:20:56;8.4;75.5
78704;SHT31;68034;51.966;5.676;2023-12-22T03:23:25;8.4;75.1
78704;SHT31;68034;51.966;5.676;2023-12-22T03:25:54;8.4;75.7
78704;SHT31;68034;51.966;5.676;2023-12-22T03:28:22;8.3;75.4
78704;SHT31;68034;51.966;5.676;2023-12-22T03:30:51;8.3;75.6
78704;SHT31;68034;51.966;5.676;2023-12-22T03:33:20;8.3;75.8
78704;SHT31;68034;51.966;5.676;2023-12-22T03:35:50;8.3;75.9
78704;SHT31;68034;51.966;5.676;2023-12-22T03:38:19;8.3;75.2
78704;SHT31;68034;51.966;5.676;2023-12-22T03:40:48;8.4;75.8
78704;SHT31;68034;51.966;5.676;2023-12-22T03:43:17;8.4;75.9
78704;SHT31;68034;51.966;5.676;2023-12-22T03:45:46;8.4;76.2
78704;SHT31;68034;51.966;5.676;2023-12-22T03:48:14;8.4;76.5
78704;SHT31;68034;51.966;5.676;2023-12-22T03:50:43;8.4;76.3
78704;SHT31;68034;51.966;5.676;2023-12-22T03:53:12;8.5;76.3
78704;SHT31;68034;51.966;5.676;2023-12-22T03:55:41;8.5;76.1
78704;SHT31;68034;51.966;5.676;2023-12-22T03:58:11;8.5;75.8
78704;SHT31;68034;51.966;5.676;2023-12-22T04:00:40;8.6;76.7
78704;SHT31;68034;51.966;5.676;2023-12-22T04:03:09;8.6;77.0
78704;SHT31;68034;51.966;5.676;2023-12-22T04:05:37;8.6;77.7
78704;SHT31;68034;51.966;5.676;2023-12-22T04:08:06;8.7;76.8
78704;SHT31;68034;51.966;5.676;2023-12-22T04:10:35;8.8;75.8
78704;SHT31;68034;51.966;5.676;2023-12-22T04:13:04;8.8;75.5
78704;SHT31;68034;51.966;5.676;2023-12-22T04:15:33;8.8;75.7
78704;SHT31;68034;51.966;5.676;2023-12-22T04:18:02;8.7;75.6
78704;SHT31;68034;51.966;5.676;2023-12-22T04:20:31;8.7;75.8
78704;SHT31;68034;51.966;5.676;2023-12-22T04:23:00;8.6;76.0
78704;SHT31;68034;51.966;5.676;2023-12-22T04:25:29;8.6;76.5
78704;SHT31;68034;51.966;5.676;2023-12-22T04:27:57;8.5;76.6
78704;SHT31;68034;51.966;5.676;2023-12-22T04:30:28;8.5;76.9
78704;SHT31;68034;51.966;5.676;2023-12-22T04:32:57;8.4;77.3
78704;SHT31;68034;51.966;5.676;2023-12-22T04:35:25;8.4;77.6
78704;SHT31;68034;51.966;5.676;2023-12-22T04:37:54;8.4;77.8
78704;SHT31;68034;51.966;5.676;2023-12-22T04:40:23;8.4;77.9
78704;SHT31;68034;51.966;5.676;2023-12-22T04:42:52;8.3;78.0
78704;SHT31;68034;51.966;5.676;2023-12-22T04:45:21;8.3;77.9
78704;SHT31;68034;51.966;5.676;2023-12-22T04:47:50;8.3;77.9
78704;SHT31;68034;51.966;5.676;2023-12-22T04:50:19;8.3;77.9
78704;SHT31;68034;51.966;5.676;2023-12-22T04:52:48;8.3;77.8
78704;SHT31;68034;51.966;5.676;2023-12-22T04:55:16;8.3;77.9
78704;SHT31;68034;51.966;5.676;2023-12-22T04:57:45;8.3;78.1
78704;SHT31;68034;51.966;5.676;2023-12-22T05:00:14;8.2;78.1
78704;SHT31;68034;51.966;5.676;2023-12-22T05:02:43;8.2;78.3
78704;SHT31;68034;51.966;5.676;2023-12-22T05:05:12;8.2;78.2
78704;SHT31;68034;51.966;5.676;2023-12-22T05:07:42;8.2;78.4
78704;SHT31;68034;51.966;5.676;2023-12-22T05:10:13;8.2;78.4
78704;SHT31;68034;51.966;5.676;2023-12-22T05:12:42;8.2;78.4
78704;SHT31;68034;51.966;5.676;2023-12-22T05:15:11;8.2;78.3
78704;SHT31;68034;51.966;5.676;2023-12-22T05:17:41;8.2;78.2
78704;SHT31;68034;51.966;5.676;2023-12-22T05:20:10;8.2;78.0
78704;SHT31;68034;51.966;5.676;2023-12-22T05:22:41;8.2;78.6
78704;SHT31;68034;51.966;5.676;2023-12-22T05:25:12;8.2;78.6
78704;SHT31;68034;51.966;5.676;2023-12-22T05:27:41;8.3;78.4
78704;SHT31;68034;51.966;5.676;2023-12-22T05:30:10;8.3;78.5
78704;SHT31;68034;51.966;5.676;2023-12-22T05:32:39;8.3;78.5
78704;SHT31;68034;51.966;5.676;2023-12-22T05:35:08;8.3;78.7
78704;SHT31;68034;51.966;5.676;2023-12-22T05:37:38;8.3;78.6
78704;SHT31;68034;51.966;5.676;2023-12-22T05:40:07;8.3;78.1
78704;SHT31;68034;51.966;5.676;2023-12-22T05:42:38;8.4;78.0
78704;SHT31;68034;51.966;5.676;2023-12-22T05:45:07;8.4;78.0
78704;SHT31;68034;51.966;5.676;2023-12-22T05:47:37;8.4;77.6
78704;SHT31;68034;51.966;5.676;2023-12-22T05:50:07;8.5;77.8
78704;SHT31;68034;51.966;5.676;2023-12-22T05:52:37;8.5;78.0
78704;SHT31;68034;51.966;5.676;2023-12-22T05:55:06;8.5;77.9
78704;SHT31;68034;51.966;5.676;2023-12-22T05:57:36;8.5;77.5
78704;SHT31;68034;51.966;5.676;2023-12-22T06:00:06;8.6;77.3
78704;SHT31;68034;51.966;5.676;2023-12-22T06:02:36;8.6;77.3
78704;SHT31;68034;51.966;5.676;2023-12-22T06:05:05;8.6;77.3
78704;SHT31;68034;51.966;5.676;2023-12-22T06:07:34;8.7;77.4
78704;SHT31;68034;51.966;5.676;2023-12-22T06:10:07;8.7;77.7
78704;SHT31;68034;51.966;5.676;2023-12-22T06:12:37;8.9;77.7
78704;SHT31;68034;51.966;5.676;2023-12-22T06:15:06;9.0;76.8
78704;SHT31;68034;51.966;5.676;2023-12-22T06:17:35;9.0;76.5
78704;SHT31;68034;51.966;5.676;2023-12-22T06:20:04;9.1;76.4
78704;SHT31;68034;51.966;5.676;2023-12-22T06:22:33;9.1;76.2
78704;SHT31;68034;51.966;5.676;2023-12-22T06:25:02;9.1;76.3
78704;SHT31;68034;51.966;5.676;2023-12-22T06:27:34;9.1;76.4
78704;SHT31;68034;51.966;5.676;2023-12-22T06:30:05;9.2;76.5
78704;SHT31;68034;51.966;5.676;2023-12-22T06:32:35;9.2;76.4
78704;SHT31;68034;51.966;5.676;2023-12-22T06:35:07;9.2;76.4
78704;SHT31;68034;51.966;5.676;2023-12-22T06:37:36;9.2;76.5
78704;SHT31;68034;51.966;5.676;2023-12-22T06:40:05;9.2;76.2
78704;SHT31;68034;51.966;5.676;2023-12-22T06:42:34;9.2;76.4
78704;SHT31;68034;51.966;5.676;2023-12-22T06:45:03;9.3;76.3
78704;SHT31;68034;51.966;5.676;2023-12-22T06:47:32;9.3;76.0
78704;SHT31;68034;51.966;5.676;2023-12-22T06:50:02;9.3;76.1
78704;SHT31;68034;51.966;5.676;2023-12-22T06:52:32;9.3;76.3
78704;SHT31;68034;51.966;5.676;2023-12-22T06:55:00;9.3;76.1
78704;SHT31;68034;51.966;5.676;2023-12-22T06:57:29;9.3;76.1
78704;SHT31;68034;51.966;5.676;2023-12-22T06:59:58;9.4;76.1
78704;SHT31;68034;51.966;5.676;2023-12-22T07:02:27;9.4;76.2
78704;SHT31;68034;51.966;5.676;2023-12-22T07:07:56;9.4;75.9
78704;SHT31;68034;51.966;5.676;2023-12-22T07:10:25;9.4;76.1
78704;SHT31;68034;51.966;5.676;2023-12-22T07:12:53;9.4;76.1
78704;SHT31;68034;51.966;5.676;2023-12-22T07:15:22;9.5;75.9
78704;SHT31;68034;51.966;5.676;2023-12-22T07:17:51;9.5;76.0
78704;SHT31;68034;51.966;5.676;2023-12-22T07:20:20;9.5;75.9
78704;SHT31;68034;51.966;5.676;2023-12-22T07:22:48;9.5;75.8
78704;SHT31;68034;51.966;5.676;2023-12-22T07:25:18;9.5;76.0
78704;SHT31;68034;51.966;5.676;2023-12-22T07:27:47;9.6;75.8
78704;SHT31;68034;51.966;5.676;2023-12-22T07:30:16;9.6;76.0
78704;SHT31;68034;51.966;5.676;2023-12-22T07:32:46;9.6;75.9
78704;SHT31;68034;51.966;5.676;2023-12-22T07:35:18;9.6;75.8
78704;SHT31;68034;51.966;5.676;2023-12-22T07:37:47;9.6;75.4
78704;SHT31;68034;51.966;5.676;2023-12-22T07:40:15;9.7;75.6
78704;SHT31;68034;51.966;5.676;2023-12-22T07:42:44;9.7;75.6
78704;SHT31;68034;51.966;5.676;2023-12-22T07:45:13;9.7;75.5
78704;SHT31;68034;51.966;5.676;2023-12-22T07:47:44;9.7;75.6
78704;SHT31;68034;51.966;5.676;2023-12-22T07:50:12;9.8;75.5
78704;SHT31;68034;51.966;5.676;2023-12-22T07:52:41;9.8;75.8
78704;SHT31;68034;51.966;5.676;2023-12-22T07:55:10;9.8;75.4
78704;SHT31;68034;51.966;5.676;2023-12-22T07:57:39;9.8;75.5
78704;SHT31;68034;51.966;5.676;2023-12-22T08:00:09;9.8;75.7
78704;SHT31;68034;51.966;5.676;2023-12-22T08:02:39;9.8;76.0
78704;SHT31;68034;51.966;5.676;2023-12-22T08:05:08;9.8;75.4
78704;SHT31;68034;51.966;5.676;2023-12-22T08:07:37;9.8;75.3
78704;SHT31;68034;51.966;5.676;2023-12-22T08:10:07;9.8;75.8
78704;SHT31;68034;51.966;5.676;2023-12-22T08:12:35;9.7;76.2
78704;SHT31;68034;51.966;5.676;2023-12-22T08:15:05;9.7;76.6
78704;SHT31;68034;51.966;5.676;2023-12-22T08:17:37;9.7;77.1
78704;SHT31;68034;51.966;5.676;2023-12-22T08:20:07;9.6;77.3
78704;SHT31;68034;51.966;5.676;2023-12-22T08:22:39;9.6;77.5
78704;SHT31;68034;51.966;5.676;2023-12-22T08:25:09;9.6;77.8
78704;SHT31;68034;51.966;5.676;2023-12-22T08:27:37;9.6;78.1
78704;SHT31;68034;51.966;5.676;2023-12-22T08:30:06;9.5;78.4
78704;SHT31;68034;51.966;5.676;2023-12-22T08:32:36;9.5;78.8
78704;SHT31;68034;51.966;5.676;2023-12-22T08:35:05;9.5;79.0
78704;SHT31;68034;51.966;5.676;2023-12-22T08:37:34;9.5;79.4
78704;SHT31;68034;51.966;5.676;2023-12-22T08:40:04;9.5;79.7
78704;SHT31;68034;51.966;5.676;2023-12-22T08:42:33;9.5;80.1
78704;SHT31;68034;51.966;5.676;2023-12-22T08:45:02;9.5;80.5
78704;SHT31;68034;51.966;5.676;2023-12-22T08:47:32;9.4;80.8
78704;SHT31;68034;51.966;5.676;2023-12-22T08:50:00;9.4;81.0
78704;SHT31;68034;51.966;5.676;2023-12-22T08:52:31;9.4;81.0
78704;SHT31;68034;51.966;5.676;2023-12-22T08:55:00;9.4;81.0
78704;SHT31;68034;51.966;5.676;2023-12-22T08:57:28;9.4;81.0
78704;SHT31;68034;51.966;5.676;2023-12-22T08:59:58;9.5;81.0
78704;SHT31;68034;51.966;5.676;2023-12-22T09:02:27;9.5;81.0
78704;SHT31;68034;51.966;5.676;2023-12-22T09:04:55;9.5;81.0
78704;SHT31;68034;51.966;5.676;2023-12-22T09:07:24;9.5;81.1
78704;SHT31;68034;51.966;5.676;2023-12-22T09:09:53;9.5;81.4
78704;SHT31;68034;51.966;5.676;2023-12-22T09:12:21;9.5;81.6
78704;SHT31;68034;51.966;5.676;2023-12-22T09:14:50;9.5;81.8
78704;SHT31;68034;51.966;5.676;2023-12-22T09:17:19;9.5;82.0
78704;SHT31;68034;51.966;5.676;2023-12-22T09:19:48;9.5;82.2
78704;SHT31;68034;51.966;5.676;2023-12-22T09:22:17;9.5;82.2
78704;SHT31;68034;51.966;5.676;2023-12-22T09:24:45;9.6;82.3
78704;SHT31;68034;51.966;5.676;2023-12-22T09:27:15;9.6;82.4
78704;SHT31;68034;51.966;5.676;2023-12-22T09:29:43;9.6;82.6
78704;SHT31;68034;51.966;5.676;2023-12-22T09:32:14;9.6;82.7
78704;SHT31;68034;51.966;5.676;2023-12-22T09:34:43;9.6;82.7
78704;SHT31;68034;51.966;5.676;2023-12-22T09:37:11;9.6;81.9
78704;SHT31;68034;51.966;5.676;2023-12-22T09:39:41;9.6;81.4
78704;SHT31;68034;51.966;5.676;2023-12-22T09:42:09;9.6;81.1
78704;SHT31;68034;51.966;5.676;2023-12-22T09:44:39;9.6;80.6
78704;SHT31;68034;51.966;5.676;2023-12-22T09:47:10;9.6;80.4
78704;SHT31;68034;51.966;5.676;2023-12-22T09:49:41;9.6;80.1
78704;SHT31;68034;51.966;5.676;2023-12-22T09:52:11;9.5;80.2
78704;SHT31;68034;51.966;5.676;2023-12-22T09:54:41;9.5;80.3
78704;SHT31;68034;51.966;5.676;2023-12-22T09:57:12;9.5;80.3
78704;SHT31;68034;51.966;5.676;2023-12-22T09:59:41;9.5;80.5
78704;SHT31;68034;51.966;5.676;2023-12-22T10:02:10;9.5;80.7
78704;SHT31;68034;51.966;5.676;2023-12-22T10:04:39;9.5;80.8
78704;SHT31;68034;51.966;5.676;2023-12-22T10:07:09;9.5;80.9
78704;SHT31;68034;51.966;5.676;2023-12-22T10:09:42;9.5;81.1
78704;SHT31;68034;51.966;5.676;2023-12-22T10:12:13;9.5;81.5
78704;SHT31;68034;51.966;5.676;2023-12-22T10:14:43;9.6;81.6
78704;SHT31;68034;51.966;5.676;2023-12-22T10:17:12;9.6;82.0
78704;SHT31;68034;51.966;5.676;2023-12-22T10:19:41;9.6;82.7
78704;SHT31;68034;51.966;5.676;2023-12-22T10:22:09;9.7;83.2
78704;SHT31;68034;51.966;5.676;2023-12-22T10:24:38;9.8;83.2
78704;SHT31;68034;51.966;5.676;2023-12-22T10:27:09;9.9;83.3
78704;SHT31;68034;51.966;5.676;2023-12-22T10:29:39;9.9;83.3
78704;SHT31;68034;51.966;5.676;2023-12-22T10:32:08;10.0;83.3
78704;SHT31;68034;51.966;5.676;2023-12-22T10:34:37;10.0;83.2
78704;SHT31;68034;51.966;5.676;2023-12-22T10:37:06;10.1;83.6
78704;SHT31;68034;51.966;5.676;2023-12-22T10:39:36;10.2;83.5
78704;SHT31;68034;51.966;5.676;2023-12-22T10:42:07;10.4;82.4
78704;SHT31;68034;51.966;5.676;2023-12-22T10:44:40;10.5;81.7
78704;SHT31;68034;51.966;5.676;2023-12-22T10:47:09;10.5;81.4
78704;SHT31;68034;51.966;5.676;2023-12-22T10:49:39;10.6;81.2
78704;SHT31;68034;51.966;5.676;2023-12-22T10:52:17;10.6;81.2
78704;SHT31;68034;51.966;5.676;2023-12-22T10:54:48;10.6;81.1
78704;SHT31;68034;51.966;5.676;2023-12-22T10:57:19;10.7;80.8
78704;SHT31;68034;51.966;5.676;2023-12-22T10:59:48;10.7;80.4
78704;SHT31;68034;51.966;5.676;2023-12-22T11:02:18;10.7;80.1
78704;SHT31;68034;51.966;5.676;2023-12-22T11:04:56;10.7;80.2
78704;SHT31;68034;51.966;5.676;2023-12-22T11:07:28;10.7;80.0
78704;SHT31;68034;51.966;5.676;2023-12-22T11:10:03;10.7;80.2
78704;SHT31;68034;51.966;5.676;2023-12-22T11:12:35;10.7;80.4
78704;SHT31;68034;51.966;5.676;2023-12-22T11:15:05;10.7;80.5
78704;SHT31;68034;51.966;5.676;2023-12-22T11:17:37;10.7;80.4
78704;SHT31;68034;51.966;5.676;2023-12-22T11:20:09;10.7;80.5
78704;SHT31;68034;51.966;5.676;2023-12-22T11:22:40;10.8;80.2
78704;SHT31;68034;51.966;5.676;2023-12-22T11:25:11;10.8;80.4
78704;SHT31;68034;51.966;5.676;2023-12-22T11:27:43;10.8;80.3
78704;SHT31;68034;51.966;5.676;2023-12-22T11:30:14;10.8;80.2
78704;SHT31;68034;51.966;5.676;2023-12-22T11:32:44;10.8;80.2
78704;SHT31;68034;51.966;5.676;2023-12-22T11:35:14;10.7;80.3
78704;SHT31;68034;51.966;5.676;2023-12-22T11:37:43;10.7;80.0
78704;SHT31;68034;51.966;5.676;2023-12-22T11:40:13;10.7;80.1
78704;SHT31;68034;51.966;5.676;2023-12-22T11:42:47;10.7;80.2
78704;SHT31;68034;51.966;5.676;2023-12-22T11:45:18;10.7;80.4
78704;SHT31;68034;51.966;5.676;2023-12-22T11:47:50;10.7;80.5
78704;SHT31;68034;51.966;5.676;2023-12-22T11:50:30;10.7;80.9
78704;SHT31;68034;51.966;5.676;2023-12-22T11:53:21;10.7;80.8
78704;SHT31;68034;51.966;5.676;2023-12-22T11:56:04;10.7;80.7
78704;SHT31;68034;51.966;5.676;2023-12-22T11:58:36;10.7;80.7
78704;SHT31;68034;51.966;5.676;2023-12-22T12:01:06;10.8;80.5
78704;SHT31;68034;51.966;5.676;2023-12-22T12:03:40;10.8;80.5
78704;SHT31;68034;51.966;5.676;2023-12-22T12:06:14;10.8;80.3
78704;SHT31;68034;51.966;5.676;2023-12-22T12:08:44;10.8;80.2
78704;SHT31;68034;51.966;5.676;2023-12-22T12:11:15;10.8;79.7
78704;SHT31;68034;51.966;5.676;2023-12-22T12:13:45;10.9;79.6
78704;SHT31;68034;51.966;5.676;2023-12-22T12:16:18;10.9;79.7
78704;SHT31;68034;51.966;5.676;2023-12-22T12:18:48;10.9;79.4
78704;SHT31;68034;51.966;5.676;2023-12-22T12:21:18;10.9;79.5
78704;SHT31;68034;51.966;5.676;2023-12-22T12:23:50;10.9;79.7
78704;SHT31;68034;51.966;5.676;2023-12-22T12:26:20;11.0;80.1
78704;SHT31;68034;51.966;5.676;2023-12-22T12:28:49;11.1;79.6
78704;SHT31;68034;51.966;5.676;2023-12-22T12:31:18;11.2;78.9
78704;SHT31;68034;51.966;5.676;2023-12-22T12:33:49;11.2;78.7
78704;SHT31;68034;51.966;5.676;2023-12-22T12:36:18;11.2;78.5
78704;SHT31;68034;51.966;5.676;2023-12-22T12:38:55;11.2;78.4
78704;SHT31;68034;51.966;5.676;2023-12-22T12:41:30;11.2;78.3
78704;SHT31;68034;51.966;5.676;2023-12-22T12:43:59;11.3;78.7
78704;SHT31;68034;51.966;5.676;2023-12-22T12:46:34;11.3;78.9
78704;SHT31;68034;51.966;5.676;2023-12-22T12:49:06;11.3;78.8
78704;SHT31;68034;51.966;5.676;2023-12-22T12:51:40;11.3;78.6
78704;SHT31;68034;51.966;5.676;2023-12-22T12:54:10;11.3;78.5
78704;SHT31;68034;51.966;5.676;2023-12-22T12:56:41;11.3;78.7
78704;SHT31;68034;51.966;5.676;2023-12-22T12:59:12;11.3;78.9
78704;SHT31;68034;51.966;5.676;2023-12-22T13:01:43;11.3;79.2
78704;SHT31;68034;51.966;5.676;2023-12-22T13:04:12;11.2;79.2
78704;SHT31;68034;51.966;5.676;2023-12-22T13:06:45;11.2;79.3
78704;SHT31;68034;51.966;5.676;2023-12-22T13:09:15;11.2;79.2
78704;SHT31;68034;51.966;5.676;2023-12-22T13:11:46;11.2;79.6
78704;SHT31;68034;51.966;5.676;2023-12-22T13:14:21;11.2;79.2
78704;SHT31;68034;51.966;5.676;2023-12-22T13:16:52;11.2;79.0
78704;SHT31;68034;51.966;5.676;2023-12-22T13:19:23;11.2;79.0
78704;SHT31;68034;51.966;5.676;2023-12-22T13:21:54;11.2;78.6
78704;SHT31;68034;51.966;5.676;2023-12-22T13:24:23;11.2;78.5
78704;SHT31;68034;51.966;5.676;2023-12-22T13:27:02;11.2;78.2
78704;SHT31;68034;51.966;5.676;2023-12-22T13:29:45;11.2;78.3
78704;SHT31;68034;51.966;5.676;2023-12-22T13:32:22;11.2;77.4
78704;SHT31;68034;51.966;5.676;2023-12-22T13:34:53;11.2;77.7
78704;SHT31;68034;51.966;5.676;2023-12-22T13:37:22;11.2;78.0
78704;SHT31;68034;51.966;5.676;2023-12-22T13:39:53;11.2;78.1
78704;SHT31;68034;51.966;5.676;2023-12-22T13:42:24;11.2;78.3
78704;SHT31;68034;51.966;5.676;2023-12-22T13:44:53;11.3;78.6
78704;SHT31;68034;51.966;5.676;2023-12-22T13:47:22;11.3;78.7
78704;SHT31;68034;51.966;5.676;2023-12-22T13:49:51;11.3;78.1
78704;SHT31;68034;51.966;5.676;2023-12-22T13:52:31;11.3;78.4
78704;SHT31;68034;51.966;5.676;2023-12-22T13:55:01;11.3;77.9
78704;SHT31;68034;51.966;5.676;2023-12-22T13:57:30;11.3;78.0
78704;SHT31;68034;51.966;5.676;2023-12-22T13:59:59;11.3;78.1
78704;SHT31;68034;51.966;5.676;2023-12-22T14:02:27;11.3;77.9
78704;SHT31;68034;51.966;5.676;2023-12-22T14:04:59;11.3;78.0
78704;SHT31;68034;51.966;5.676;2023-12-22T14:07:28;11.3;77.9
78704;SHT31;68034;51.966;5.676;2023-12-22T14:09:56;11.3;77.8
78704;SHT31;68034;51.966;5.676;2023-12-22T14:12:25;11.4;77.5
78704;SHT31;68034;51.966;5.676;2023-12-22T14:14:54;11.4;77.0
78704;SHT31;68034;51.966;5.676;2023-12-22T14:17:22;11.4;77.2
78704;SHT31;68034;51.966;5.676;2023-12-22T14:19:51;11.4;76.9
78704;SHT31;68034;51.966;5.676;2023-12-22T14:22:20;11.4;76.8
78704;SHT31;68034;51.966;5.676;2023-12-22T14:24:48;11.4;77.0
78704;SHT31;68034;51.966;5.676;2023-12-22T14:27:17;11.4;76.8
78704;SHT31;68034;51.966;5.676;2023-12-22T14:29:46;11.5;76.6
78704;SHT31;68034;51.966;5.676;2023-12-22T14:32:15;11.5;77.4
78704;SHT31;68034;51.966;5.676;2023-12-22T14:34:45;11.6;76.5
78704;SHT31;68034;51.966;5.676;2023-12-22T14:37:15;11.7;76.3
78704;SHT31;68034;51.966;5.676;2023-12-22T14:39:46;11.7;76.1
78704;SHT31;68034;51.966;5.676;2023-12-22T14:42:15;11.7;76.2
78704;SHT31;68034;51.966;5.676;2023-12-22T14:44:45;11.7;76.2
78704;SHT31;68034;51.966;5.676;2023-12-22T14:47:14;11.7;76.6
78704;SHT31;68034;51.966;5.676;2023-12-22T14:49:43;11.7;77.0
78704;SHT31;68034;51.966;5.676;2023-12-22T14:52:12;11.6;77.1
78704;SHT31;68034;51.966;5.676;2023-12-22T14:54:40;11.6;77.4
78704;SHT31;68034;51.966;5.676;2023-12-22T14:57:11;11.5;77.5
78704;SHT31;68034;51.966;5.676;2023-12-22T14:59:44;11.4;77.5
78704;SHT31;68034;51.966;5.676;2023-12-22T15:02:12;11.4;77.8
78704;SHT31;68034;51.966;5.676;2023-12-22T15:04:41;11.4;77.8
78704;SHT31;68034;51.966;5.676;2023-12-22T15:07:14;11.3;78.1
78704;SHT31;68034;51.966;5.676;2023-12-22T15:09:43;11.3;78.4
78704;SHT31;68034;51.966;5.676;2023-12-22T15:12:14;11.3;78.7
78704;SHT31;68034;51.966;5.676;2023-12-22T15:14:46;11.2;78.8
78704;SHT31;68034;51.966;5.676;2023-12-22T15:17:15;11.2;79.3
78704;SHT31;68034;51.966;5.676;2023-12-22T15:19:44;11.2;79.8
78704;SHT31;68034;51.966;5.676;2023-12-22T15:22:12;11.1;79.6
78704;SHT31;68034;51.966;5.676;2023-12-22T15:24:43;11.1;79.7
78704;SHT31;68034;51.966;5.676;2023-12-22T15:27:12;11.1;80.1
78704;SHT31;68034;51.966;5.676;2023-12-22T15:29:41;11.1;80.1
78704;SHT31;68034;51.966;5.676;2023-12-22T15:32:12;11.1;80.4
78704;SHT31;68034;51.966;5.676;2023-12-22T15:34:42;11.1;80.1
78704;SHT31;68034;51.966;5.676;2023-12-22T15:37:12;11.1;79.8
78704;SHT31;68034;51.966;5.676;2023-12-22T15:39:41;11.1;80.2
78704;SHT31;68034;51.966;5.676;2023-12-22T15:42:10;11.1;80.3
78704;SHT31;68034;51.966;5.676;2023-12-22T15:44:41;11.1;80.1
78704;SHT31;68034;51.966;5.676;2023-12-22T15:47:09;11.0;80.0
78704;SHT31;68034;51.966;5.676;2023-12-22T15:49:39;11.0;79.9
78704;SHT31;68034;51.966;5.676;2023-12-22T15:52:08;11.0;79.7
78704;SHT31;68034;51.966;5.676;2023-12-22T15:54:38;11.0;79.8
78704;SHT31;68034;51.966;5.676;2023-12-22T15:57:07;11.0;80.1
78704;SHT31;68034;51.966;5.676;2023-12-22T15:59:36;11.0;80.6
78704;SHT31;68034;51.966;5.676;2023-12-22T16:02:05;11.0;80.3
78704;SHT31;68034;51.966;5.676;2023-12-22T16:04:33;11.0;80.7
78704;SHT31;68034;51.966;5.676;2023-12-22T16:07:02;10.9;81.1
78704;SHT31;68034;51.966;5.676;2023-12-22T16:09:33;10.9;81.5
78704;SHT31;68034;51.966;5.676;2023-12-22T16:12:02;10.9;81.6
78704;SHT31;68034;51.966;5.676;2023-12-22T16:14:34;10.9;81.7
78704;SHT31;68034;51.966;5.676;2023-12-22T16:17:03;10.9;81.8
78704;SHT31;68034;51.966;5.676;2023-12-22T16:19:32;10.9;81.7
78704;SHT31;68034;51.966;5.676;2023-12-22T16:22:01;10.9;81.6
78704;SHT31;68034;51.966;5.676;2023-12-22T16:24:30;10.9;81.6
78704;SHT31;68034;51.966;5.676;2023-12-22T16:26:59;10.9;81.6
78704;SHT31;68034;51.966;5.676;2023-12-22T16:29:28;10.9;81.6
78704;SHT31;68034;51.966;5.676;2023-12-22T16:31:59;10.9;81.6